createdAt,value
2023-04-17T00:00:40.372Z,5.90
2023-04-17T00:03:11.995Z,5.80
2023-04-17T00:05:40.655Z,6.17
2023-04-17T00:08:10.014Z,6.07
2023-04-17T00:10:39.958Z,6.47
2023-04-17T00:13:08.633Z,6.07
2023-04-17T00:15:37.315Z,6.83
2023-04-17T00:18:06.241Z,6.10
2023-04-17T00:20:34.865Z,6.23
2023-04-17T00:23:03.499Z,5.70
2023-04-17T00:25:32.151Z,6.30
2023-04-17T00:28:02.270Z,6.13
2023-04-17T00:30:31.098Z,7.00
2023-04-17T00:32:59.832Z,7.00
2023-04-17T00:35:28.569Z,6.90
2023-04-17T00:37:57.167Z,7.13
2023-04-17T00:40:26.505Z,6.97
2023-04-17T00:43:00.674Z,6.97
2023-04-17T00:45:31.441Z,7.43
2023-04-17T00:48:01.568Z,7.30
2023-04-17T00:50:31.010Z,7.43
2023-04-17T00:53:00.884Z,7.07
2023-04-17T00:55:29.933Z,7.53
2023-04-17T00:57:58.974Z,7.10
2023-04-17T01:00:27.786Z,7.00
2023-04-17T01:02:59.424Z,7.27
2023-04-17T01:05:29.494Z,7.10
2023-04-17T01:07:59.031Z,7.57
2023-04-17T01:10:27.586Z,7.77
2023-04-17T01:13:04.127Z,6.60
2023-04-17T01:15:33.759Z,7.00
2023-04-17T01:18:04.345Z,7.10
2023-04-17T01:20:34.205Z,7.20
2023-04-17T01:23:03.345Z,7.03
2023-04-17T01:25:33.439Z,6.80
2023-04-17T01:28:02.525Z,6.57
2023-04-17T01:30:31.606Z,6.40
2023-04-17T01:33:08.750Z,6.93
2023-04-17T01:35:38.117Z,7.00
2023-04-17T01:38:06.754Z,7.17
2023-04-17T01:41:30.468Z,7.37
2023-04-17T01:44:00.772Z,6.80
2023-04-17T01:46:29.395Z,6.87
2023-04-17T01:48:58.290Z,7.43
2023-04-17T01:51:28.083Z,6.80
2023-04-17T01:53:56.734Z,6.80
2023-04-17T01:56:26.065Z,6.80
2023-04-17T01:58:54.589Z,6.70
2023-04-17T02:01:24.802Z,6.80
2023-04-17T02:03:53.587Z,7.13
2023-04-17T02:06:22.364Z,6.80
2023-04-17T02:08:50.831Z,6.80
2023-04-17T02:11:19.450Z,6.80
2023-04-17T02:13:48.060Z,6.73
2023-04-17T02:16:16.632Z,6.60
2023-04-17T02:18:46.765Z,6.60
2023-04-17T02:21:15.449Z,7.03
2023-04-17T02:23:44.060Z,6.93
2023-04-17T02:26:12.735Z,6.73
2023-04-17T02:28:41.352Z,7.00
2023-04-17T02:31:10.407Z,7.07
2023-04-17T02:33:40.187Z,7.10
2023-04-17T02:36:11.914Z,7.43
2023-04-17T02:38:43.321Z,7.43
2023-04-17T02:41:11.997Z,6.70
2023-04-17T02:43:41.325Z,6.67
2023-04-17T02:46:11.897Z,6.93
2023-04-17T02:48:40.561Z,7.00
2023-04-17T02:51:09.313Z,7.30
2023-04-17T02:53:39.472Z,6.90
2023-04-17T02:56:08.434Z,6.53
2023-04-17T02:58:37.727Z,6.23
2023-04-17T03:01:08.453Z,6.87
2023-04-17T03:03:42.323Z,6.13
2023-04-17T03:06:13.767Z,8.30
2023-04-17T03:08:44.009Z,6.60
2023-04-17T03:11:12.667Z,6.50
2023-04-17T03:13:41.365Z,6.07
2023-04-17T03:16:10.096Z,6.27
2023-04-17T03:18:42.033Z,5.53
2023-04-17T03:21:10.969Z,5.93
2023-04-17T03:23:39.625Z,5.93
2023-04-17T03:26:11.380Z,5.70
2023-04-17T03:28:40.484Z,6.27
2023-04-17T03:31:09.166Z,5.90
2023-04-17T03:33:38.894Z,5.73
2023-04-17T03:36:08.216Z,5.90
2023-04-17T03:38:37.867Z,5.93
2023-04-17T03:41:08.487Z,6.67
2023-04-17T03:43:38.480Z,6.43
2023-04-17T03:46:07.137Z,5.93
2023-04-17T03:48:36.012Z,6.10
2023-04-17T03:51:05.081Z,6.20
2023-04-17T03:53:34.534Z,6.40
2023-04-17T03:56:04.918Z,6.13
2023-04-17T03:58:39.989Z,7.03
2023-04-17T04:01:12.627Z,6.93
2023-04-17T04:03:52.450Z,6.77
2023-04-17T04:06:23.821Z,6.33
2023-04-17T04:08:52.955Z,6.33
2023-04-17T04:11:21.850Z,6.77
2023-04-17T04:13:51.948Z,6.77
2023-04-17T04:16:20.537Z,6.37
2023-04-17T04:18:50.391Z,6.23
2023-04-17T04:21:19.942Z,6.23
2023-04-17T04:23:49.852Z,6.23
2023-04-17T04:26:21.917Z,6.03
2023-04-17T04:28:56.885Z,6.40
2023-04-17T04:31:35.811Z,6.10
2023-04-17T04:34:06.238Z,6.33
2023-04-17T04:36:36.524Z,6.17
2023-04-17T04:39:20.815Z,6.37
2023-04-17T04:41:51.531Z,6.50
2023-04-17T04:44:24.011Z,6.27
2023-04-17T04:46:56.478Z,6.10
2023-04-17T04:49:27.517Z,6.27
2023-04-17T04:51:56.285Z,6.10
2023-04-17T04:54:31.986Z,6.00
2023-04-17T04:57:02.771Z,6.30
2023-04-17T04:59:32.839Z,6.47
2023-04-17T05:02:27.932Z,5.90
2023-04-17T05:04:57.593Z,6.03
2023-04-17T05:07:27.338Z,6.43
2023-04-17T05:09:56.454Z,6.27
2023-04-17T05:12:25.524Z,6.43
2023-04-17T05:14:55.712Z,6.20
2023-04-17T05:17:24.422Z,6.03
2023-04-17T05:19:53.703Z,6.40
2023-04-17T05:22:23.957Z,6.40
2023-04-17T05:25:12.737Z,6.00
2023-04-17T05:27:41.520Z,6.83
2023-04-17T05:30:13.664Z,6.33
2023-04-17T05:32:46.431Z,6.10
2023-04-17T05:35:28.770Z,6.13
2023-04-17T05:37:57.488Z,6.23
2023-04-17T05:40:26.113Z,5.77
2023-04-17T05:42:54.782Z,6.00
2023-04-17T05:45:25.923Z,5.90
2023-04-17T05:47:54.850Z,5.57
2023-04-17T05:50:50.521Z,5.90
2023-04-17T05:53:19.744Z,5.47
2023-04-17T05:55:55.217Z,5.60
2023-04-17T05:58:24.616Z,5.80
2023-04-17T06:00:59.248Z,5.67
2023-04-17T06:03:30.105Z,5.90
2023-04-17T06:06:08.858Z,5.83
2023-04-17T06:08:37.485Z,5.27
2023-04-17T06:11:06.902Z,5.30
2023-04-17T06:13:35.677Z,5.60
2023-04-17T06:16:07.437Z,5.53
2023-04-17T06:18:36.110Z,6.07
2023-04-17T06:21:04.903Z,5.63
2023-04-17T06:23:33.633Z,5.43
2023-04-17T06:26:02.529Z,5.60
2023-04-17T06:28:32.331Z,6.00
2023-04-17T06:31:02.145Z,5.93
2023-04-17T06:33:32.644Z,5.70
2023-04-17T06:36:01.353Z,5.60
2023-04-17T06:38:45.741Z,5.63
2023-04-17T06:41:14.664Z,6.50
2023-04-17T06:43:43.522Z,5.37
2023-04-17T06:46:16.378Z,5.57
2023-04-17T06:48:46.455Z,5.90
2023-04-17T06:51:15.072Z,6.10
2023-04-17T06:53:44.081Z,5.13
2023-04-17T06:56:12.794Z,5.50
2023-04-17T06:58:44.540Z,5.43
2023-04-17T07:01:13.629Z,5.30
2023-04-17T07:03:43.154Z,5.70
2023-04-17T07:06:13.523Z,5.17
2023-04-17T07:08:41.971Z,5.13
2023-04-17T07:11:10.675Z,4.87
2023-04-17T07:13:39.325Z,5.27
2023-04-17T07:16:08.489Z,5.10
2023-04-17T07:18:37.249Z,5.00
2023-04-17T07:21:05.934Z,5.17
2023-04-17T07:23:35.984Z,4.90
2023-04-17T07:26:04.649Z,4.80
2023-04-17T07:28:34.287Z,5.20
2023-04-17T07:31:08.696Z,5.40
2023-04-17T07:33:40.174Z,5.00
2023-04-17T07:36:13.147Z,5.80
2023-04-17T07:38:43.249Z,5.27
2023-04-17T07:41:12.580Z,5.63
2023-04-17T07:43:41.338Z,5.80
2023-04-17T07:46:09.986Z,5.73
2023-04-17T07:48:38.673Z,6.30
2023-04-17T07:51:07.821Z,6.80
2023-04-17T07:53:38.724Z,6.50
2023-04-17T07:56:09.353Z,6.37
2023-04-17T07:58:39.221Z,5.80
2023-04-17T08:01:07.916Z,6.47
2023-04-17T08:03:36.875Z,6.40
2023-04-17T08:06:06.273Z,6.00
2023-04-17T08:08:35.035Z,5.80
2023-04-17T08:11:03.718Z,5.80
2023-04-17T08:13:34.069Z,5.77
2023-04-17T08:16:02.797Z,5.43
2023-04-17T08:18:32.392Z,5.33
2023-04-17T08:21:01.741Z,5.80
2023-04-17T08:23:30.669Z,5.10
2023-04-17T08:25:59.530Z,4.73
2023-04-17T08:28:28.968Z,5.10
2023-04-17T08:30:59.320Z,4.73
2023-04-17T08:33:28.371Z,4.50
2023-04-17T08:35:57.009Z,4.23
2023-04-17T08:38:27.364Z,4.03
2023-04-17T08:40:59.606Z,3.90
2023-04-17T08:43:30.530Z,3.73
2023-04-17T08:46:01.654Z,4.27
2023-04-17T08:48:31.773Z,3.87
2023-04-17T08:51:01.025Z,4.07
2023-04-17T08:53:29.869Z,3.87
2023-04-17T08:56:06.868Z,3.87
2023-04-17T08:58:37.597Z,4.30
2023-04-17T09:01:12.166Z,4.50
2023-04-17T09:03:47.947Z,4.47
2023-04-17T09:06:17.278Z,4.28
2023-04-17T09:08:58.202Z,4.72
2023-04-17T09:11:31.668Z,4.63
2023-04-17T09:14:01.292Z,4.60
2023-04-17T09:16:31.747Z,4.60
2023-04-17T09:19:07.909Z,4.90
2023-04-17T09:21:36.609Z,5.10
2023-04-17T09:24:07.086Z,4.28
2023-04-17T09:26:37.216Z,3.97
2023-04-17T09:29:09.343Z,4.25
2023-04-17T09:31:40.578Z,3.85
2023-04-17T09:34:11.903Z,3.65
2023-04-17T09:36:42.306Z,3.65
2023-04-17T09:39:20.463Z,3.42
2023-04-17T09:41:49.219Z,3.33
2023-04-17T09:44:48.432Z,3.65
2023-04-17T09:47:19.818Z,3.35
2023-04-17T09:49:52.499Z,3.33
2023-04-17T09:52:24.895Z,3.20
2023-04-17T09:54:57.797Z,3.42
2023-04-17T09:57:26.568Z,3.55
2023-04-17T09:59:59.632Z,3.88
2023-04-17T10:02:31.930Z,4.43
2023-04-17T10:05:02.506Z,4.00
2023-04-17T10:07:31.629Z,3.58
2023-04-17T10:10:01.165Z,3.80
2023-04-17T10:12:29.928Z,3.75
2023-04-17T10:14:58.770Z,3.20
2023-04-17T10:17:31.904Z,2.97
2023-04-17T10:20:44.988Z,3.20
2023-04-17T10:23:29.288Z,2.60
2023-04-17T10:26:43.711Z,2.55
2023-04-17T10:29:12.874Z,2.42
2023-04-17T10:32:15.588Z,2.70
2023-04-17T10:34:44.242Z,2.50
2023-04-17T10:37:15.588Z,2.22
2023-04-17T10:40:00.735Z,2.72
2023-04-17T10:42:31.183Z,2.70
2023-04-17T10:45:05.227Z,2.47
2023-04-17T10:47:35.483Z,2.20
2023-04-17T10:50:06.040Z,1.77
2023-04-17T10:52:45.033Z,1.67
2023-04-17T10:55:17.838Z,1.90
2023-04-17T10:57:55.240Z,1.90
2023-04-17T11:00:32.563Z,1.67
2023-04-17T11:03:03.094Z,1.70
2023-04-17T11:05:32.915Z,1.60
2023-04-17T11:08:03.090Z,1.65
2023-04-17T11:10:31.904Z,1.80
2023-04-17T11:13:00.928Z,1.60
2023-04-17T11:15:30.791Z,2.00
2023-04-17T11:18:00.612Z,1.90
2023-04-17T11:20:31.148Z,1.98
2023-04-17T11:23:04.623Z,1.70
2023-04-17T11:25:35.092Z,1.60
2023-04-17T11:28:06.401Z,1.75
2023-04-17T11:30:36.879Z,1.70
2023-04-17T11:33:08.041Z,1.50
2023-04-17T11:35:38.401Z,1.40
2023-04-17T11:38:17.925Z,1.45
2023-04-17T11:40:51.343Z,1.20
2023-04-17T11:43:21.438Z,1.13
2023-04-17T11:45:52.818Z,1.50
2023-04-17T11:48:50.723Z,1.48
2023-04-17T11:51:20.316Z,1.50
2023-04-17T11:53:51.646Z,1.48
2023-04-17T11:56:23.110Z,1.40
2023-04-17T11:58:53.472Z,1.40
2023-04-17T12:01:28.634Z,1.60
2023-04-17T12:04:23.154Z,1.35
2023-04-17T12:06:51.825Z,1.50
2023-04-17T12:09:24.948Z,1.40
2023-04-17T12:11:54.144Z,1.60
2023-04-17T12:14:24.082Z,1.40
2023-04-17T12:16:53.819Z,1.50
2023-04-17T12:19:22.532Z,1.52
2023-04-17T12:21:52.585Z,1.40
2023-04-17T12:24:49.608Z,1.40
2023-04-17T12:27:18.145Z,1.35
2023-04-17T12:29:50.225Z,1.30
2023-04-17T12:32:22.449Z,1.40
2023-04-17T12:34:51.035Z,1.50
2023-04-17T12:37:20.333Z,1.48
2023-04-17T12:39:56.103Z,1.55
2023-04-17T12:42:33.612Z,1.65
2023-04-17T12:45:05.132Z,1.50
2023-04-17T12:47:33.794Z,1.60
2023-04-17T12:50:02.429Z,1.50
2023-04-17T12:52:31.208Z,1.30
2023-04-17T12:55:01.442Z,1.50
2023-04-17T12:57:30.717Z,1.40
2023-04-17T12:59:59.279Z,1.27
2023-04-17T13:02:27.847Z,1.50
2023-04-17T13:04:58.644Z,1.30
2023-04-17T13:07:27.355Z,1.20
2023-04-17T13:09:55.873Z,1.10
2023-04-17T13:12:26.092Z,1.30
2023-04-17T13:14:57.260Z,1.23
2023-04-17T13:17:26.355Z,1.08
2023-04-17T13:19:55.123Z,1.02
2023-04-17T13:22:23.798Z,1.15
2023-04-17T13:24:53.407Z,1.10
2023-04-17T13:27:22.111Z,1.00
2023-04-17T13:29:52.225Z,1.20
2023-04-17T13:32:20.766Z,1.00
2023-04-17T13:34:56.273Z,1.10
2023-04-17T13:37:26.973Z,1.00
2023-04-17T13:39:55.697Z,0.80
2023-04-17T13:42:24.380Z,1.10
2023-04-17T13:44:54.551Z,1.10
2023-04-17T13:47:23.255Z,1.10
2023-04-17T13:49:54.159Z,1.00
2023-04-17T13:52:22.903Z,1.10
2023-04-17T13:54:56.421Z,1.30
2023-04-17T13:57:25.086Z,1.10
2023-04-17T13:59:55.311Z,1.40
2023-04-17T14:02:24.082Z,1.17
2023-04-17T14:04:53.110Z,1.13
2023-04-17T14:07:21.883Z,1.33
2023-04-17T14:09:50.488Z,1.50
2023-04-17T14:12:20.973Z,1.20
2023-04-17T14:14:49.609Z,1.10
2023-04-17T14:17:19.639Z,1.20
2023-04-17T14:19:48.285Z,1.40
2023-04-17T14:22:16.902Z,1.00
2023-04-17T14:24:45.542Z,1.30
2023-04-17T14:27:14.118Z,1.40
2023-04-17T14:30:38.968Z,1.30
2023-04-17T14:37:18.093Z,1.20
2023-04-17T14:39:46.529Z,1.30
2023-04-17T14:42:15.344Z,1.40
2023-04-17T14:44:44.499Z,1.27
2023-04-17T14:47:13.912Z,1.63
2023-04-17T14:49:42.571Z,1.60
2023-04-17T14:52:11.130Z,1.57
2023-04-17T14:54:43.327Z,1.70
2023-04-17T14:57:12.038Z,1.60
2023-04-17T15:00:07.164Z,1.90
2023-04-17T15:02:39.754Z,1.80
2023-04-17T15:05:11.230Z,1.57
2023-04-17T15:07:41.809Z,2.03
2023-04-17T15:10:12.493Z,1.80
2023-04-17T15:13:36.025Z,2.40
2023-04-17T15:16:04.844Z,2.80
2023-04-17T15:18:34.774Z,2.50
2023-04-17T15:21:03.332Z,2.87
2023-04-17T15:23:32.074Z,2.70
2023-04-17T15:26:02.589Z,2.60
2023-04-17T15:28:34.380Z,2.80
2023-04-17T15:31:03.411Z,2.90
2023-04-17T15:33:31.953Z,2.70
2023-04-17T15:36:01.068Z,2.67
2023-04-17T15:38:29.763Z,2.80
2023-04-17T15:40:59.021Z,2.60
2023-04-17T15:43:29.255Z,3.13
2023-04-17T15:45:59.199Z,3.50
2023-04-17T15:48:27.987Z,3.03
2023-04-17T15:50:56.885Z,3.30
2023-04-17T15:53:26.196Z,3.30
2023-04-17T15:55:54.932Z,3.53
2023-04-17T15:58:23.637Z,3.53
2023-04-17T16:00:53.708Z,3.30
2023-04-17T16:03:23.389Z,3.60
2023-04-17T16:05:53.986Z,3.50
2023-04-17T16:08:27.093Z,3.80
2023-04-17T16:10:55.682Z,3.70
2023-04-17T16:13:24.366Z,4.07
2023-04-17T16:15:54.566Z,3.80
2023-04-17T16:18:23.211Z,3.93
2023-04-17T16:20:51.851Z,3.80
2023-04-17T16:23:20.904Z,4.03
2023-04-17T16:25:50.324Z,4.00
2023-04-17T16:28:45.864Z,4.20
2023-04-17T16:31:17.337Z,4.30
2023-04-17T16:33:46.205Z,4.70
2023-04-17T16:36:45.893Z,4.80
2023-04-17T16:39:14.730Z,4.80
2023-04-17T16:41:43.455Z,5.40
2023-04-17T16:44:12.082Z,5.63
2023-04-17T16:46:59.223Z,6.47
2023-04-17T16:49:31.802Z,6.90
2023-04-17T16:52:00.568Z,6.63
2023-04-17T16:54:29.308Z,6.70
2023-04-17T16:56:58.013Z,7.17
2023-04-17T16:59:26.888Z,6.93
2023-04-17T17:01:56.897Z,6.47
2023-04-17T17:04:25.737Z,7.27
2023-04-17T17:06:54.875Z,6.80
2023-04-17T17:09:23.548Z,6.30
2023-04-17T17:11:52.224Z,6.67
2023-04-17T17:14:20.905Z,6.47
2023-04-17T17:16:49.591Z,6.50
2023-04-17T17:19:20.733Z,6.10
2023-04-17T17:21:50.078Z,5.60
2023-04-17T17:24:18.793Z,5.57
2023-04-17T17:26:47.511Z,6.00
2023-04-17T17:29:16.125Z,6.97
2023-04-17T17:31:44.795Z,7.50
2023-04-17T17:36:46.419Z,10.40
2023-04-17T17:39:15.186Z,11.77
2023-04-17T17:41:45.866Z,11.20
2023-04-17T17:44:15.722Z,11.97
2023-04-17T17:46:44.562Z,12.93
2023-04-17T17:49:13.124Z,14.17
2023-04-17T17:51:42.156Z,14.23
2023-04-17T17:54:12.446Z,14.27
2023-04-17T17:56:41.314Z,14.70
2023-04-17T17:59:10.093Z,15.07
2023-04-17T18:01:38.914Z,13.83
2023-04-17T18:04:07.777Z,13.60
2023-04-17T18:06:36.619Z,13.60
2023-04-17T18:09:05.463Z,12.73
2023-04-17T18:11:35.558Z,12.23
2023-04-17T18:14:04.262Z,12.40
2023-04-17T18:16:33.842Z,11.77
2023-04-17T18:19:04.868Z,11.13
2023-04-17T18:21:34.030Z,11.40
2023-04-17T18:24:03.294Z,11.90
2023-04-17T18:26:33.491Z,9.53
2023-04-17T18:29:03.597Z,10.23
2023-04-17T18:31:32.491Z,9.47
2023-04-17T18:34:02.904Z,9.70
2023-04-17T18:36:32.059Z,9.97
2023-04-17T18:39:00.792Z,9.63
2023-04-17T18:41:30.144Z,9.30
2023-04-17T18:43:59.230Z,9.90
2023-04-17T18:46:30.763Z,8.90
2023-04-17T18:49:00.745Z,8.93
2023-04-17T18:51:29.953Z,8.20
2023-04-17T18:53:59.057Z,9.07
2023-04-17T18:56:28.140Z,8.43
2023-04-17T18:58:57.428Z,8.13
2023-04-17T19:01:27.027Z,7.80
2023-04-17T19:03:57.831Z,7.43
2023-04-17T19:06:26.917Z,7.50
2023-04-17T19:08:57.089Z,6.40
2023-04-17T19:11:27.602Z,6.63
2023-04-17T19:13:56.203Z,6.80
2023-04-17T19:16:25.114Z,6.67
2023-04-17T19:18:53.785Z,6.30
2023-04-17T19:21:24.111Z,6.93
2023-04-17T19:23:53.532Z,6.40
2023-04-17T19:26:22.215Z,6.10
2023-04-17T19:28:51.000Z,6.97
2023-04-17T19:31:19.784Z,7.10
2023-04-17T19:33:48.787Z,6.73
2023-04-17T19:36:17.628Z,7.30
2023-04-17T19:38:47.756Z,6.67
2023-04-17T19:41:18.321Z,6.97
2023-04-17T19:43:47.407Z,7.37
2023-04-17T19:46:16.695Z,7.07
2023-04-17T19:48:46.907Z,7.43
2023-04-17T19:51:16.897Z,7.47
2023-04-17T19:53:48.050Z,6.63
2023-04-17T19:56:18.130Z,7.17
2023-04-17T19:58:48.927Z,7.20
2023-04-17T20:01:17.986Z,7.10
2023-04-17T20:03:46.762Z,7.13
2023-04-17T20:06:15.655Z,7.53
2023-04-17T20:09:13.946Z,7.23
2023-04-17T20:11:43.252Z,7.57
2023-04-17T20:14:14.809Z,7.50
2023-04-17T20:16:45.552Z,7.80
2023-04-17T20:19:14.510Z,7.60
2023-04-17T20:21:44.206Z,8.20
2023-04-17T20:24:15.932Z,8.20
2023-04-17T20:26:45.730Z,8.43
2023-04-17T20:29:14.695Z,8.20
2023-04-17T20:31:43.684Z,8.40
2023-04-17T20:34:12.389Z,8.90
2023-04-17T20:36:41.066Z,7.97
2023-04-17T20:39:11.256Z,8.67
2023-04-17T20:41:42.590Z,8.50
2023-04-17T20:44:11.321Z,8.53
2023-04-17T20:46:40.075Z,8.90
2023-04-17T20:49:09.050Z,8.17
2023-04-17T20:51:38.589Z,8.50
2023-04-17T20:54:07.685Z,9.07
2023-04-17T20:56:36.717Z,9.37
2023-04-17T20:59:07.415Z,8.40
2023-04-17T21:02:54.980Z,8.30
2023-04-17T21:05:23.900Z,7.77
2023-04-17T21:07:53.247Z,9.07
2023-04-17T21:10:22.194Z,8.90
2023-04-17T21:12:51.320Z,8.70
2023-04-17T21:15:21.786Z,8.57
2023-04-17T21:17:50.488Z,9.20
2023-04-17T21:20:19.259Z,8.80
2023-04-17T21:22:48.030Z,9.70
2023-04-17T21:25:16.746Z,8.63
2023-04-17T21:27:45.450Z,9.57
2023-04-17T21:30:14.358Z,8.67
2023-04-17T21:32:44.675Z,9.37
2023-04-17T21:35:13.284Z,9.33
2023-04-17T21:37:41.979Z,9.47
2023-04-17T21:40:11.505Z,9.73
2023-04-17T21:42:40.073Z,10.27
2023-04-17T21:45:09.624Z,10.37
2023-04-17T21:47:38.316Z,10.03
2023-04-17T21:50:09.953Z,10.07
2023-04-17T21:52:38.554Z,10.10
2023-04-17T21:55:08.079Z,10.50
2023-04-17T21:57:36.685Z,10.30
2023-04-17T22:00:06.515Z,10.23
2023-04-17T22:02:35.287Z,9.73
2023-04-17T22:05:04.053Z,10.20
2023-04-17T22:07:38.201Z,9.63
2023-04-17T22:10:16.189Z,10.50
2023-04-17T22:12:44.846Z,9.97
2023-04-17T22:15:13.690Z,10.20
2023-04-17T22:17:42.385Z,10.47
2023-04-17T22:20:11.932Z,10.40
2023-04-17T22:22:42.006Z,10.13
2023-04-17T22:25:11.196Z,10.63
2023-04-17T22:27:39.647Z,9.77
2023-04-17T22:30:09.044Z,10.77
2023-04-17T22:32:37.860Z,11.07
2023-04-17T22:35:07.575Z,10.57
2023-04-17T22:37:36.503Z,11.00
2023-04-17T22:40:08.175Z,10.83
2023-04-17T22:42:36.867Z,11.67
2023-04-17T22:45:06.566Z,10.77
2023-04-17T22:47:35.311Z,11.27
2023-04-17T22:50:04.285Z,11.37
2023-04-17T22:52:33.287Z,11.60
2023-04-17T22:55:02.202Z,11.00
2023-04-17T22:57:32.633Z,11.13
2023-04-17T23:00:01.679Z,11.43
2023-04-17T23:02:30.686Z,11.17
2023-04-17T23:04:59.512Z,12.17
2023-04-17T23:07:28.212Z,11.63
2023-04-17T23:09:56.749Z,11.87
2023-04-17T23:12:25.493Z,12.03
2023-04-17T23:14:55.629Z,12.40
2023-04-17T23:17:24.316Z,11.80
2023-04-17T23:19:52.910Z,11.93
2023-04-17T23:22:21.587Z,11.60
2023-04-17T23:24:50.192Z,11.77
2023-04-17T23:27:46.089Z,11.63
2023-04-17T23:30:16.722Z,11.13
2023-04-17T23:32:45.305Z,11.37
2023-04-17T23:35:14.014Z,12.03
2023-04-17T23:37:42.790Z,11.67
2023-04-17T23:40:11.961Z,11.13
2023-04-17T23:42:41.337Z,10.63
2023-04-17T23:45:10.840Z,10.63
2023-04-17T23:47:41.110Z,10.80
2023-04-17T23:50:10.592Z,10.17
2023-04-17T23:52:39.349Z,10.73
2023-04-17T23:55:09.344Z,10.37
2023-04-17T23:57:38.532Z,11.17
